sensor_id;sensor_type;location;lat;lon;timestamp;P1;durP1;ratioP1;P2;durP2;ratioP2
73015;SDS011;61893;50.074;14.440;2023-02-18T00:01:07;3.58;;;2.85;;
73015;SDS011;61893;50.074;14.440;2023-02-18T00:04:11;4.18;;;2.90;;
73015;SDS011;61893;50.074;14.440;2023-02-18T00:07:35;3.67;;;2.70;;
73015;SDS011;61893;50.074;14.440;2023-02-18T00:10:08;4.07;;;2.70;;
73015;SDS011;61893;50.074;14.440;2023-02-18T00:12:54;5.57;;;2.90;;
73015;SDS011;61893;50.074;14.440;2023-02-18T00:15:40;4.15;;;2.80;;
73015;SDS011;61893;50.074;14.440;2023-02-18T00:18:27;3.63;;;2.60;;
73015;SDS011;61893;50.074;14.440;2023-02-18T00:21:50;3.45;;;2.70;;
73015;SDS011;61893;50.074;14.440;2023-02-18T00:25:13;4.20;;;2.83;;
73015;SDS011;61893;50.074;14.440;2023-02-18T00:28:15;4.45;;;2.60;;
73015;SDS011;61893;50.074;14.440;2023-02-18T00:30:55;6.80;;;3.80;;
73015;SDS011;61893;50.074;14.440;2023-02-18T00:33:48;4.45;;;3.25;;
73015;SDS011;61893;50.074;14.440;2023-02-18T00:36:55;6.05;;;2.67;;
73015;SDS011;61893;50.074;14.440;2023-02-18T00:39:39;4.28;;;3.00;;
73015;SDS011;61893;50.074;14.440;2023-02-18T00:42:04;3.95;;;2.72;;
73015;SDS011;61893;50.074;14.440;2023-02-18T00:45:05;4.80;;;3.13;;
73015;SDS011;61893;50.074;14.440;2023-02-18T00:47:48;7.10;;;3.22;;
73015;SDS011;61893;50.074;14.440;2023-02-18T00:50:22;4.55;;;2.95;;
73015;SDS011;61893;50.074;14.440;2023-02-18T00:52:56;5.28;;;2.97;;
73015;SDS011;61893;50.074;14.440;2023-02-18T00:55:31;5.93;;;3.55;;
73015;SDS011;61893;50.074;14.440;2023-02-18T00:58:41;6.07;;;3.08;;
73015;SDS011;61893;50.074;14.440;2023-02-18T01:01:34;3.35;;;2.33;;
73015;SDS011;61893;50.074;14.440;2023-02-18T01:04:45;4.25;;;2.83;;
73015;SDS011;61893;50.074;14.440;2023-02-18T01:07:55;4.07;;;2.75;;
73015;SDS011;61893;50.074;14.440;2023-02-18T01:10:48;3.95;;;2.35;;
73015;SDS011;61893;50.074;14.440;2023-02-18T01:14:07;4.03;;;3.40;;
73015;SDS011;61893;50.074;14.440;2023-02-18T01:16:39;3.83;;;2.25;;
73015;SDS011;61893;50.074;14.440;2023-02-18T01:19:41;2.65;;;2.17;;
73015;SDS011;61893;50.074;14.440;2023-02-18T01:22:10;2.95;;;2.10;;
73015;SDS011;61893;50.074;14.440;2023-02-18T01:25:03;3.00;;;2.08;;
73015;SDS011;61893;50.074;14.440;2023-02-18T01:27:32;2.72;;;1.83;;
73015;SDS011;61893;50.074;14.440;2023-02-18T01:30:35;3.65;;;2.08;;
73015;SDS011;61893;50.074;14.440;2023-02-18T01:33:29;3.58;;;1.80;;
73015;SDS011;61893;50.074;14.440;2023-02-18T01:36:20;2.30;;;1.88;;
73015;SDS011;61893;50.074;14.440;2023-02-18T01:39:02;2.65;;;1.70;;
73015;SDS011;61893;50.074;14.440;2023-02-18T01:42:26;5.05;;;2.30;;
73015;SDS011;61893;50.074;14.440;2023-02-18T01:49:03;3.08;;;2.15;;
73015;SDS011;61893;50.074;14.440;2023-02-18T01:51:47;3.25;;;2.20;;
73015;SDS011;61893;50.074;14.440;2023-02-18T01:54:21;4.47;;;2.28;;
73015;SDS011;61893;50.074;14.440;2023-02-18T01:57:17;3.00;;;2.10;;
73015;SDS011;61893;50.074;14.440;2023-02-18T02:00:09;3.30;;;2.10;;
73015;SDS011;61893;50.074;14.440;2023-02-18T02:02:38;2.70;;;1.98;;
73015;SDS011;61893;50.074;14.440;2023-02-18T02:05:12;5.90;;;2.10;;
73015;SDS011;61893;50.074;14.440;2023-02-18T02:07:43;4.95;;;2.03;;
73015;SDS011;61893;50.074;14.440;2023-02-18T02:10:14;4.20;;;2.20;;
73015;SDS011;61893;50.074;14.440;2023-02-18T02:12:59;3.40;;;1.85;;
73015;SDS011;61893;50.074;14.440;2023-02-18T02:19:49;4.07;;;2.20;;
73015;SDS011;61893;50.074;14.440;2023-02-18T02:28:07;4.45;;;2.80;;
73015;SDS011;61893;50.074;14.440;2023-02-18T02:36:57;3.13;;;2.30;;
73015;SDS011;61893;50.074;14.440;2023-02-18T02:42:39;3.00;;;2.20;;
73015;SDS011;61893;50.074;14.440;2023-02-18T02:54:34;4.03;;;2.58;;
73015;SDS011;61893;50.074;14.440;2023-02-18T03:00:30;4.97;;;2.45;;
73015;SDS011;61893;50.074;14.440;2023-02-18T03:06:06;3.95;;;2.80;;
73015;SDS011;61893;50.074;14.440;2023-02-18T03:11:28;4.85;;;2.67;;
73015;SDS011;61893;50.074;14.440;2023-02-18T03:14:29;3.90;;;2.75;;
73015;SDS011;61893;50.074;14.440;2023-02-18T03:17:14;6.88;;;3.00;;
73015;SDS011;61893;50.074;14.440;2023-02-18T03:19:54;4.10;;;2.83;;
73015;SDS011;61893;50.074;14.440;2023-02-18T03:22:51;4.38;;;2.53;;
73015;SDS011;61893;50.074;14.440;2023-02-18T03:25:18;3.13;;;2.20;;
73015;SDS011;61893;50.074;14.440;2023-02-18T03:27:48;3.95;;;2.38;;
73015;SDS011;61893;50.074;14.440;2023-02-18T03:30:45;3.08;;;2.35;;
73015;SDS011;61893;50.074;14.440;2023-02-18T03:33:27;2.92;;;2.17;;
73015;SDS011;61893;50.074;14.440;2023-02-18T03:36:01;4.95;;;2.05;;
73015;SDS011;61893;50.074;14.440;2023-02-18T03:41:14;2.95;;;2.08;;
73015;SDS011;61893;50.074;14.440;2023-02-18T03:44:01;3.47;;;2.40;;
73015;SDS011;61893;50.074;14.440;2023-02-18T03:46:48;3.15;;;1.90;;
73015;SDS011;61893;50.074;14.440;2023-02-18T03:49:45;2.97;;;2.20;;
73015;SDS011;61893;50.074;14.440;2023-02-18T03:52:34;2.90;;;2.00;;
73015;SDS011;61893;50.074;14.440;2023-02-18T03:55:21;4.45;;;2.10;;
73015;SDS011;61893;50.074;14.440;2023-02-18T03:57:51;4.53;;;2.28;;
73015;SDS011;61893;50.074;14.440;2023-02-18T04:00:38;2.92;;;2.00;;
73015;SDS011;61893;50.074;14.440;2023-02-18T04:03:07;2.65;;;2.00;;
73015;SDS011;61893;50.074;14.440;2023-02-18T04:05:33;2.80;;;1.95;;
73015;SDS011;61893;50.074;14.440;2023-02-18T04:07:59;3.70;;;2.08;;
73015;SDS011;61893;50.074;14.440;2023-02-18T04:10:25;2.08;;;1.77;;
73015;SDS011;61893;50.074;14.440;2023-02-18T04:12:51;4.97;;;2.10;;
73015;SDS011;61893;50.074;14.440;2023-02-18T04:15:17;2.70;;;1.90;;
73015;SDS011;61893;50.074;14.440;2023-02-18T04:17:45;4.43;;;2.80;;
73015;SDS011;61893;50.074;14.440;2023-02-18T04:20:17;3.72;;;1.92;;
73015;SDS011;61893;50.074;14.440;2023-02-18T04:22:45;4.50;;;2.17;;
73015;SDS011;61893;50.074;14.440;2023-02-18T04:25:26;3.03;;;1.77;;
73015;SDS011;61893;50.074;14.440;2023-02-18T04:27:52;2.83;;;1.70;;
73015;SDS011;61893;50.074;14.440;2023-02-18T04:30:21;3.47;;;1.95;;
73015;SDS011;61893;50.074;14.440;2023-02-18T04:32:48;3.92;;;2.10;;
73015;SDS011;61893;50.074;14.440;2023-02-18T04:35:14;2.42;;;1.67;;
73015;SDS011;61893;50.074;14.440;2023-02-18T04:37:54;3.10;;;1.90;;
73015;SDS011;61893;50.074;14.440;2023-02-18T04:40:20;3.22;;;2.15;;
73015;SDS011;61893;50.074;14.440;2023-02-18T04:42:52;3.30;;;1.63;;
73015;SDS011;61893;50.074;14.440;2023-02-18T04:45:18;4.20;;;1.90;;
73015;SDS011;61893;50.074;14.440;2023-02-18T04:48:02;2.60;;;1.70;;
73015;SDS011;61893;50.074;14.440;2023-02-18T04:50:33;3.65;;;1.67;;
73015;SDS011;61893;50.074;14.440;2023-02-18T04:53:01;3.03;;;1.90;;
73015;SDS011;61893;50.074;14.440;2023-02-18T04:56:26;2.45;;;1.63;;
73015;SDS011;61893;50.074;14.440;2023-02-18T04:58:57;3.22;;;1.80;;
73015;SDS011;61893;50.074;14.440;2023-02-18T05:01:23;2.10;;;1.70;;
73015;SDS011;61893;50.074;14.440;2023-02-18T05:04:09;2.50;;;1.70;;
73015;SDS011;61893;50.074;14.440;2023-02-18T05:06:35;2.38;;;1.60;;
73015;SDS011;61893;50.074;14.440;2023-02-18T05:09:07;2.80;;;1.67;;
73015;SDS011;61893;50.074;14.440;2023-02-18T05:11:34;1.90;;;1.42;;
73015;SDS011;61893;50.074;14.440;2023-02-18T05:14:11;2.10;;;1.42;;
73015;SDS011;61893;50.074;14.440;2023-02-18T05:16:37;2.97;;;1.80;;
73015;SDS011;61893;50.074;14.440;2023-02-18T05:19:05;3.45;;;1.85;;
73015;SDS011;61893;50.074;14.440;2023-02-18T05:21:31;2.22;;;1.45;;
73015;SDS011;61893;50.074;14.440;2023-02-18T05:23:57;2.72;;;1.60;;
73015;SDS011;61893;50.074;14.440;2023-02-18T05:26:26;2.42;;;1.52;;
73015;SDS011;61893;50.074;14.440;2023-02-18T05:28:52;4.25;;;1.70;;
73015;SDS011;61893;50.074;14.440;2023-02-18T05:31:22;4.85;;;1.70;;
73015;SDS011;61893;50.074;14.440;2023-02-18T05:33:47;2.22;;;1.63;;
73015;SDS011;61893;50.074;14.440;2023-02-18T05:36:14;2.95;;;1.92;;
73015;SDS011;61893;50.074;14.440;2023-02-18T05:38:40;3.75;;;1.63;;
73015;SDS011;61893;50.074;14.440;2023-02-18T05:41:07;2.75;;;1.67;;
73015;SDS011;61893;50.074;14.440;2023-02-18T05:43:33;2.83;;;1.98;;
73015;SDS011;61893;50.074;14.440;2023-02-18T05:46:19;2.88;;;1.55;;
73015;SDS011;61893;50.074;14.440;2023-02-18T05:49:12;3.08;;;1.70;;
73015;SDS011;61893;50.074;14.440;2023-02-18T05:51:51;2.00;;;1.30;;
73015;SDS011;61893;50.074;14.440;2023-02-18T05:54:17;3.65;;;1.60;;
73015;SDS011;61893;50.074;14.440;2023-02-18T05:57:01;3.58;;;1.52;;
73015;SDS011;61893;50.074;14.440;2023-02-18T05:59:56;2.30;;;1.75;;
73015;SDS011;61893;50.074;14.440;2023-02-18T06:02:57;4.22;;;1.80;;
73015;SDS011;61893;50.074;14.440;2023-02-18T06:05:51;5.13;;;1.77;;
73015;SDS011;61893;50.074;14.440;2023-02-18T06:08:50;2.13;;;1.65;;
73015;SDS011;61893;50.074;14.440;2023-02-18T06:11:21;2.35;;;1.50;;
73015;SDS011;61893;50.074;14.440;2023-02-18T06:13:46;3.70;;;1.55;;
73015;SDS011;61893;50.074;14.440;2023-02-18T06:16:15;2.10;;;1.70;;
73015;SDS011;61893;50.074;14.440;2023-02-18T06:18:53;3.15;;;1.50;;
73015;SDS011;61893;50.074;14.440;2023-02-18T06:21:22;3.05;;;1.70;;
73015;SDS011;61893;50.074;14.440;2023-02-18T06:23:48;2.13;;;1.17;;
73015;SDS011;61893;50.074;14.440;2023-02-18T06:26:14;2.80;;;1.63;;
73015;SDS011;61893;50.074;14.440;2023-02-18T06:28:40;2.10;;;1.60;;
73015;SDS011;61893;50.074;14.440;2023-02-18T06:31:12;2.65;;;1.60;;
73015;SDS011;61893;50.074;14.440;2023-02-18T06:33:48;2.28;;;1.42;;
73015;SDS011;61893;50.074;14.440;2023-02-18T06:36:14;2.45;;;1.48;;
73015;SDS011;61893;50.074;14.440;2023-02-18T06:39:16;1.88;;;1.27;;
73015;SDS011;61893;50.074;14.440;2023-02-18T06:41:43;3.80;;;1.40;;
73015;SDS011;61893;50.074;14.440;2023-02-18T06:44:08;2.38;;;1.40;;
73015;SDS011;61893;50.074;14.440;2023-02-18T06:46:35;2.20;;;1.20;;
73015;SDS011;61893;50.074;14.440;2023-02-18T06:49:02;2.88;;;1.40;;
73015;SDS011;61893;50.074;14.440;2023-02-18T06:51:28;2.50;;;1.17;;
73015;SDS011;61893;50.074;14.440;2023-02-18T06:53:57;2.95;;;1.50;;
73015;SDS011;61893;50.074;14.440;2023-02-18T06:56:26;2.47;;;1.83;;
73015;SDS011;61893;50.074;14.440;2023-02-18T06:58:51;2.65;;;1.30;;
73015;SDS011;61893;50.074;14.440;2023-02-18T07:01:35;2.53;;;1.40;;
73015;SDS011;61893;50.074;14.440;2023-02-18T07:04:07;3.85;;;1.60;;
73015;SDS011;61893;50.074;14.440;2023-02-18T07:06:34;6.60;;;1.50;;
73015;SDS011;61893;50.074;14.440;2023-02-18T07:09:00;2.50;;;1.50;;
73015;SDS011;61893;50.074;14.440;2023-02-18T07:11:26;1.52;;;1.17;;
73015;SDS011;61893;50.074;14.440;2023-02-18T07:14:21;2.67;;;1.45;;
73015;SDS011;61893;50.074;14.440;2023-02-18T07:16:48;3.60;;;1.40;;
73015;SDS011;61893;50.074;14.440;2023-02-18T07:19:20;4.50;;;1.70;;
73015;SDS011;61893;50.074;14.440;2023-02-18T07:21:46;2.90;;;1.50;;
73015;SDS011;61893;50.074;14.440;2023-02-18T07:24:16;3.00;;;1.60;;
73015;SDS011;61893;50.074;14.440;2023-02-18T07:26:42;2.25;;;1.50;;
73015;SDS011;61893;50.074;14.440;2023-02-18T07:29:18;1.85;;;1.17;;
73015;SDS011;61893;50.074;14.440;2023-02-18T07:31:44;2.85;;;1.30;;
73015;SDS011;61893;50.074;14.440;2023-02-18T07:34:12;3.92;;;1.33;;
73015;SDS011;61893;50.074;14.440;2023-02-18T07:36:40;4.70;;;1.40;;
73015;SDS011;61893;50.074;14.440;2023-02-18T07:39:07;2.65;;;1.40;;
73015;SDS011;61893;50.074;14.440;2023-02-18T07:41:32;1.98;;;1.27;;
73015;SDS011;61893;50.074;14.440;2023-02-18T07:44:01;2.90;;;1.67;;
73015;SDS011;61893;50.074;14.440;2023-02-18T07:46:27;3.25;;;1.25;;
73015;SDS011;61893;50.074;14.440;2023-02-18T07:48:53;3.33;;;1.70;;
73015;SDS011;61893;50.074;14.440;2023-02-18T07:51:21;2.35;;;1.30;;
73015;SDS011;61893;50.074;14.440;2023-02-18T07:53:52;4.03;;;1.30;;
73015;SDS011;61893;50.074;14.440;2023-02-18T07:56:18;2.78;;;1.55;;
73015;SDS011;61893;50.074;14.440;2023-02-18T07:58:53;4.05;;;1.38;;
73015;SDS011;61893;50.074;14.440;2023-02-18T08:01:19;2.47;;;1.27;;
73015;SDS011;61893;50.074;14.440;2023-02-18T08:03:45;3.90;;;1.90;;
73015;SDS011;61893;50.074;14.440;2023-02-18T08:06:19;2.58;;;1.60;;
73015;SDS011;61893;50.074;14.440;2023-02-18T08:09:00;1.95;;;1.55;;
73015;SDS011;61893;50.074;14.440;2023-02-18T08:11:34;2.33;;;1.20;;
73015;SDS011;61893;50.074;14.440;2023-02-18T08:14:03;1.60;;;1.20;;
73015;SDS011;61893;50.074;14.440;2023-02-18T08:16:29;1.88;;;1.20;;
73015;SDS011;61893;50.074;14.440;2023-02-18T08:19:01;3.15;;;1.17;;
73015;SDS011;61893;50.074;14.440;2023-02-18T08:21:30;3.28;;;1.35;;
73015;SDS011;61893;50.074;14.440;2023-02-18T08:24:15;1.73;;;1.20;;
73015;SDS011;61893;50.074;14.440;2023-02-18T08:26:51;2.28;;;1.10;;
73015;SDS011;61893;50.074;14.440;2023-02-18T08:29:22;1.65;;;1.17;;
73015;SDS011;61893;50.074;14.440;2023-02-18T08:31:56;2.88;;;1.70;;
73015;SDS011;61893;50.074;14.440;2023-02-18T08:34:35;3.35;;;1.20;;
73015;SDS011;61893;50.074;14.440;2023-02-18T08:37:44;1.77;;;1.02;;
73015;SDS011;61893;50.074;14.440;2023-02-18T08:40:28;2.65;;;1.38;;
73015;SDS011;61893;50.074;14.440;2023-02-18T08:43:12;1.55;;;0.95;;
73015;SDS011;61893;50.074;14.440;2023-02-18T08:45:39;2.05;;;0.80;;
73015;SDS011;61893;50.074;14.440;2023-02-18T08:48:07;2.78;;;1.00;;
73015;SDS011;61893;50.074;14.440;2023-02-18T08:50:56;1.40;;;0.85;;
73015;SDS011;61893;50.074;14.440;2023-02-18T08:53:37;1.80;;;1.02;;
73015;SDS011;61893;50.074;14.440;2023-02-18T08:56:07;2.03;;;0.90;;
73015;SDS011;61893;50.074;14.440;2023-02-18T08:58:39;2.88;;;1.02;;
73015;SDS011;61893;50.074;14.440;2023-02-18T09:01:09;2.33;;;1.00;;
73015;SDS011;61893;50.074;14.440;2023-02-18T09:03:46;4.60;;;0.98;;
73015;SDS011;61893;50.074;14.440;2023-02-18T09:06:26;1.73;;;0.80;;
73015;SDS011;61893;50.074;14.440;2023-02-18T09:09:00;1.50;;;0.82;;
73015;SDS011;61893;50.074;14.440;2023-02-18T09:12:27;2.67;;;1.10;;
73015;SDS011;61893;50.074;14.440;2023-02-18T09:16:13;2.22;;;0.98;;
73015;SDS011;61893;50.074;14.440;2023-02-18T09:19:13;1.23;;;0.90;;
73015;SDS011;61893;50.074;14.440;2023-02-18T09:23:09;0.80;;;0.60;;
73015;SDS011;61893;50.074;14.440;2023-02-18T09:26:24;5.97;;;1.88;;
73015;SDS011;61893;50.074;14.440;2023-02-18T09:29:48;1.63;;;0.95;;
73015;SDS011;61893;50.074;14.440;2023-02-18T09:32:47;1.50;;;1.00;;
73015;SDS011;61893;50.074;14.440;2023-02-18T09:36:23;1.70;;;0.90;;
73015;SDS011;61893;50.074;14.440;2023-02-18T09:39:22;4.50;;;1.00;;
73015;SDS011;61893;50.074;14.440;2023-02-18T09:46:35;1.00;;;0.65;;
73015;SDS011;61893;50.074;14.440;2023-02-18T09:49:43;0.75;;;0.52;;
73015;SDS011;61893;50.074;14.440;2023-02-18T09:53:24;0.43;;;0.40;;
73015;SDS011;61893;50.074;14.440;2023-02-18T09:56:28;0.52;;;0.50;;
73015;SDS011;61893;50.074;14.440;2023-02-18T09:59:20;1.23;;;0.60;;
73015;SDS011;61893;50.074;14.440;2023-02-18T10:02:44;1.52;;;0.60;;
73015;SDS011;61893;50.074;14.440;2023-02-18T10:05:18;3.55;;;0.50;;
73015;SDS011;61893;50.074;14.440;2023-02-18T10:07:53;2.42;;;0.80;;
73015;SDS011;61893;50.074;14.440;2023-02-18T10:13:25;1.50;;;0.85;;
73015;SDS011;61893;50.074;14.440;2023-02-18T10:16:04;1.35;;;0.70;;
73015;SDS011;61893;50.074;14.440;2023-02-18T10:18:45;0.90;;;0.70;;
73015;SDS011;61893;50.074;14.440;2023-02-18T10:21:48;1.00;;;0.63;;
73015;SDS011;61893;50.074;14.440;2023-02-18T10:24:56;1.73;;;0.70;;
73015;SDS011;61893;50.074;14.440;2023-02-18T10:28:33;0.60;;;0.50;;
73015;SDS011;61893;50.074;14.440;2023-02-18T10:32:23;7.90;;;3.17;;
73015;SDS011;61893;50.074;14.440;2023-02-18T10:41:02;0.75;;;0.50;;
73015;SDS011;61893;50.074;14.440;2023-02-18T10:51:57;0.77;;;0.60;;
73015;SDS011;61893;50.074;14.440;2023-02-18T10:54:49;1.13;;;0.63;;
73015;SDS011;61893;50.074;14.440;2023-02-18T10:57:26;0.70;;;0.40;;
73015;SDS011;61893;50.074;14.440;2023-02-18T10:59:56;0.98;;;0.70;;
73015;SDS011;61893;50.074;14.440;2023-02-18T11:03:03;0.70;;;0.60;;
73015;SDS011;61893;50.074;14.440;2023-02-18T11:05:54;2.17;;;1.02;;
73015;SDS011;61893;50.074;14.440;2023-02-18T11:08:23;1.20;;;0.80;;
73015;SDS011;61893;50.074;14.440;2023-02-18T11:10:54;2.47;;;1.20;;
73015;SDS011;61893;50.074;14.440;2023-02-18T11:14:03;1.58;;;1.00;;
73015;SDS011;61893;50.074;14.440;2023-02-18T11:16:41;2.53;;;1.60;;
73015;SDS011;61893;50.074;14.440;2023-02-18T11:19:33;2.58;;;1.77;;
73015;SDS011;61893;50.074;14.440;2023-02-18T11:24:46;2.25;;;1.63;;
73015;SDS011;61893;50.074;14.440;2023-02-18T11:31:00;3.65;;;1.70;;
73015;SDS011;61893;50.074;14.440;2023-02-18T11:33:34;3.05;;;2.17;;
73015;SDS011;61893;50.074;14.440;2023-02-18T11:36:36;3.50;;;1.90;;
73015;SDS011;61893;50.074;14.440;2023-02-18T11:42:34;7.47;;;2.75;;
73015;SDS011;61893;50.074;14.440;2023-02-18T11:45:28;9.27;;;2.25;;
73015;SDS011;61893;50.074;14.440;2023-02-18T11:47:59;3.33;;;2.22;;
73015;SDS011;61893;50.074;14.440;2023-02-18T11:51:13;4.80;;;2.50;;
73015;SDS011;61893;50.074;14.440;2023-02-18T11:54:39;6.03;;;2.13;;
73015;SDS011;61893;50.074;14.440;2023-02-18T11:57:10;3.40;;;2.15;;
73015;SDS011;61893;50.074;14.440;2023-02-18T11:59:40;5.43;;;2.33;;
73015;SDS011;61893;50.074;14.440;2023-02-18T12:04:42;4.55;;;2.78;;
73015;SDS011;61893;50.074;14.440;2023-02-18T12:10:09;6.65;;;2.67;;
73015;SDS011;61893;50.074;14.440;2023-02-18T12:13:03;3.92;;;2.50;;
73015;SDS011;61893;50.074;14.440;2023-02-18T12:15:51;3.35;;;2.40;;
73015;SDS011;61893;50.074;14.440;2023-02-18T12:21:24;6.47;;;3.70;;
73015;SDS011;61893;50.074;14.440;2023-02-18T12:26:55;4.93;;;2.97;;
73015;SDS011;61893;50.074;14.440;2023-02-18T12:37:02;6.47;;;3.38;;
73015;SDS011;61893;50.074;14.440;2023-02-18T12:39:48;4.22;;;3.20;;
73015;SDS011;61893;50.074;14.440;2023-02-18T12:46:13;4.72;;;3.22;;
73015;SDS011;61893;50.074;14.440;2023-02-18T12:51:49;3.92;;;2.85;;
73015;SDS011;61893;50.074;14.440;2023-02-18T12:57:33;3.60;;;3.00;;
73015;SDS011;61893;50.074;14.440;2023-02-18T13:09:05;4.28;;;2.75;;
73015;SDS011;61893;50.074;14.440;2023-02-18T13:12:03;4.53;;;3.08;;
73015;SDS011;61893;50.074;14.440;2023-02-18T13:14:46;4.45;;;2.90;;
73015;SDS011;61893;50.074;14.440;2023-02-18T13:17:36;4.53;;;3.03;;
73015;SDS011;61893;50.074;14.440;2023-02-18T13:20:42;4.25;;;2.67;;
73015;SDS011;61893;50.074;14.440;2023-02-18T13:27:45;7.18;;;2.78;;
73015;SDS011;61893;50.074;14.440;2023-02-18T13:33:35;4.25;;;3.45;;
73015;SDS011;61893;50.074;14.440;2023-02-18T13:39:23;3.80;;;2.70;;
73015;SDS011;61893;50.074;14.440;2023-02-18T13:42:51;2.97;;;2.42;;
73015;SDS011;61893;50.074;14.440;2023-02-18T13:50:29;3.47;;;2.63;;
73015;SDS011;61893;50.074;14.440;2023-02-18T13:53:39;5.10;;;3.10;;
73015;SDS011;61893;50.074;14.440;2023-02-18T13:57:19;6.70;;;2.67;;
73015;SDS011;61893;50.074;14.440;2023-02-18T14:14:42;4.45;;;2.67;;
73015;SDS011;61893;50.074;14.440;2023-02-18T14:21:41;4.55;;;2.63;;
73015;SDS011;61893;50.074;14.440;2023-02-18T14:24:47;5.82;;;2.97;;
73015;SDS011;61893;50.074;14.440;2023-02-18T14:27:29;5.38;;;2.65;;
73015;SDS011;61893;50.074;14.440;2023-02-18T14:29:55;4.53;;;2.80;;
73015;SDS011;61893;50.074;14.440;2023-02-18T14:39:48;4.60;;;2.97;;
73015;SDS011;61893;50.074;14.440;2023-02-18T14:48:40;5.03;;;3.40;;
73015;SDS011;61893;50.074;14.440;2023-02-18T14:51:30;4.70;;;2.58;;
73015;SDS011;61893;50.074;14.440;2023-02-18T14:54:25;6.68;;;2.88;;
73015;SDS011;61893;50.074;14.440;2023-02-18T14:57:03;6.17;;;3.63;;
73015;SDS011;61893;50.074;14.440;2023-02-18T15:00:14;4.97;;;3.00;;
73015;SDS011;61893;50.074;14.440;2023-02-18T15:03:00;8.25;;;4.35;;
73015;SDS011;61893;50.074;14.440;2023-02-18T15:05:40;4.57;;;2.80;;
73015;SDS011;61893;50.074;14.440;2023-02-18T15:08:15;5.07;;;2.90;;
73015;SDS011;61893;50.074;14.440;2023-02-18T15:10:55;4.45;;;3.08;;
73015;SDS011;61893;50.074;14.440;2023-02-18T15:13:54;6.00;;;2.90;;
73015;SDS011;61893;50.074;14.440;2023-02-18T15:19:14;3.88;;;2.60;;
73015;SDS011;61893;50.074;14.440;2023-02-18T15:22:13;4.38;;;2.60;;
73015;SDS011;61893;50.074;14.440;2023-02-18T15:25:14;7.22;;;2.92;;
73015;SDS011;61893;50.074;14.440;2023-02-18T15:28:02;4.05;;;2.55;;
73015;SDS011;61893;50.074;14.440;2023-02-18T15:30:31;3.63;;;2.50;;
73015;SDS011;61893;50.074;14.440;2023-02-18T15:33:08;5.47;;;2.50;;
73015;SDS011;61893;50.074;14.440;2023-02-18T15:35:49;4.93;;;2.08;;
73015;SDS011;61893;50.074;14.440;2023-02-18T15:45:20;3.53;;;1.88;;
73015;SDS011;61893;50.074;14.440;2023-02-18T15:47:56;2.80;;;1.80;;
73015;SDS011;61893;50.074;14.440;2023-02-18T15:50:33;3.42;;;2.10;;
73015;SDS011;61893;50.074;14.440;2023-02-18T15:53:27;3.72;;;2.35;;
73015;SDS011;61893;50.074;14.440;2023-02-18T15:56:04;3.55;;;1.98;;
73015;SDS011;61893;50.074;14.440;2023-02-18T15:59:29;4.55;;;2.38;;
73015;SDS011;61893;50.074;14.440;2023-02-18T16:02:18;4.25;;;2.20;;
73015;SDS011;61893;50.074;14.440;2023-02-18T16:04:58;2.90;;;1.73;;
73015;SDS011;61893;50.074;14.440;2023-02-18T16:07:29;4.70;;;2.30;;
73015;SDS011;61893;50.074;14.440;2023-02-18T16:12:32;4.35;;;2.00;;
73015;SDS011;61893;50.074;14.440;2023-02-18T16:14:59;2.78;;;1.83;;
73015;SDS011;61893;50.074;14.440;2023-02-18T16:17:25;4.30;;;1.77;;
73015;SDS011;61893;50.074;14.440;2023-02-18T16:20:01;2.67;;;1.95;;
73015;SDS011;61893;50.074;14.440;2023-02-18T16:22:44;3.90;;;1.90;;
73015;SDS011;61893;50.074;14.440;2023-02-18T16:27:46;4.70;;;1.55;;
73015;SDS011;61893;50.074;14.440;2023-02-18T16:30:22;4.68;;;1.30;;
73015;SDS011;61893;50.074;14.440;2023-02-18T16:32:48;3.53;;;1.65;;
73015;SDS011;61893;50.074;14.440;2023-02-18T16:35:20;4.07;;;1.50;;
73015;SDS011;61893;50.074;14.440;2023-02-18T16:37:56;3.50;;;1.40;;
73015;SDS011;61893;50.074;14.440;2023-02-18T16:40:30;2.45;;;1.33;;
73015;SDS011;61893;50.074;14.440;2023-02-18T16:43:13;3.15;;;1.25;;
73015;SDS011;61893;50.074;14.440;2023-02-18T16:45:44;1.95;;;1.27;;
73015;SDS011;61893;50.074;14.440;2023-02-18T16:48:31;2.85;;;1.10;;
73015;SDS011;61893;50.074;14.440;2023-02-18T16:50:59;1.85;;;1.10;;
73015;SDS011;61893;50.074;14.440;2023-02-18T16:53:28;2.17;;;1.10;;
73015;SDS011;61893;50.074;14.440;2023-02-18T16:55:56;2.22;;;1.08;;
73015;SDS011;61893;50.074;14.440;2023-02-18T16:58:22;1.67;;;1.05;;
73015;SDS011;61893;50.074;14.440;2023-02-18T17:00:49;1.35;;;0.80;;
73015;SDS011;61893;50.074;14.440;2023-02-18T17:03:20;2.25;;;1.08;;
73015;SDS011;61893;50.074;14.440;2023-02-18T17:06:15;1.60;;;0.98;;
73015;SDS011;61893;50.074;14.440;2023-02-18T17:09:14;2.33;;;1.13;;
73015;SDS011;61893;50.074;14.440;2023-02-18T17:12:15;4.30;;;1.08;;
73015;SDS011;61893;50.074;14.440;2023-02-18T17:14:44;0.75;;;0.70;;
73015;SDS011;61893;50.074;14.440;2023-02-18T17:17:11;3.15;;;0.75;;
73015;SDS011;61893;50.074;14.440;2023-02-18T17:19:44;1.88;;;1.10;;
73015;SDS011;61893;50.074;14.440;2023-02-18T17:22:33;1.10;;;0.85;;
73015;SDS011;61893;50.074;14.440;2023-02-18T17:25:36;4.65;;;1.23;;
73015;SDS011;61893;50.074;14.440;2023-02-18T17:28:13;1.58;;;1.00;;
73015;SDS011;61893;50.074;14.440;2023-02-18T17:30:47;2.13;;;1.02;;
73015;SDS011;61893;50.074;14.440;2023-02-18T17:33:35;0.77;;;0.68;;
73015;SDS011;61893;50.074;14.440;2023-02-18T17:36:01;1.27;;;1.08;;
73015;SDS011;61893;50.074;14.440;2023-02-18T17:38:48;3.38;;;1.13;;
73015;SDS011;61893;50.074;14.440;2023-02-18T17:41:23;4.55;;;1.48;;
73015;SDS011;61893;50.074;14.440;2023-02-18T17:43:49;2.03;;;1.10;;
73015;SDS011;61893;50.074;14.440;2023-02-18T17:47:11;2.45;;;0.88;;
73015;SDS011;61893;50.074;14.440;2023-02-18T17:50:04;1.85;;;1.05;;
73015;SDS011;61893;50.074;14.440;2023-02-18T17:52:30;1.48;;;1.05;;
73015;SDS011;61893;50.074;14.440;2023-02-18T17:54:56;4.82;;;1.15;;
73015;SDS011;61893;50.074;14.440;2023-02-18T17:57:28;2.83;;;1.30;;
73015;SDS011;61893;50.074;14.440;2023-02-18T18:00:23;1.30;;;1.08;;
73015;SDS011;61893;50.074;14.440;2023-02-18T18:02:54;1.90;;;1.10;;
73015;SDS011;61893;50.074;14.440;2023-02-18T18:05:36;2.92;;;1.10;;
73015;SDS011;61893;50.074;14.440;2023-02-18T18:08:18;1.50;;;1.05;;
73015;SDS011;61893;50.074;14.440;2023-02-18T18:10:50;2.85;;;1.13;;
73015;SDS011;61893;50.074;14.440;2023-02-18T18:13:48;2.60;;;1.10;;
73015;SDS011;61893;50.074;14.440;2023-02-18T18:16:37;1.50;;;1.05;;
73015;SDS011;61893;50.074;14.440;2023-02-18T18:19:05;1.10;;;0.98;;
73015;SDS011;61893;50.074;14.440;2023-02-18T18:21:38;2.75;;;1.00;;
73015;SDS011;61893;50.074;14.440;2023-02-18T18:24:32;1.65;;;1.10;;
73015;SDS011;61893;50.074;14.440;2023-02-18T18:27:28;2.50;;;1.20;;
73015;SDS011;61893;50.074;14.440;2023-02-18T18:29:54;2.47;;;0.90;;
73015;SDS011;61893;50.074;14.440;2023-02-18T18:32:23;3.60;;;1.48;;
73015;SDS011;61893;50.074;14.440;2023-02-18T18:35:10;2.35;;;0.90;;
73015;SDS011;61893;50.074;14.440;2023-02-18T18:37:44;1.75;;;1.10;;
73015;SDS011;61893;50.074;14.440;2023-02-18T18:40:39;1.73;;;1.10;;
73015;SDS011;61893;50.074;14.440;2023-02-18T18:43:18;7.43;;;1.20;;
73015;SDS011;61893;50.074;14.440;2023-02-18T18:46:09;1.90;;;0.95;;
73015;SDS011;61893;50.074;14.440;2023-02-18T18:48:36;1.52;;;1.00;;
73015;SDS011;61893;50.074;14.440;2023-02-18T18:51:01;1.58;;;0.98;;
73015;SDS011;61893;50.074;14.440;2023-02-18T18:53:29;2.65;;;1.20;;
73015;SDS011;61893;50.074;14.440;2023-02-18T18:55:57;1.25;;;0.85;;